Time;durP1;ratioP1;P1;durP2;ratioP2;P2;SDS_P1;SDS_P2;PMS_P1;PMS_P2;Temp;Humidity;BMP_temperature;BMP_pressure;BME280_temperature;BME280_humidity;BME280_pressure;Samples;Min_cycle;Max_cycle;Signal;HPM_P1;HPM_P2
2021/12/30 00:01:12;;;;;;;14.27;1.98;;;;;;;8.43;100.00;96153.59;5046320;28;20123;-71
2021/12/30 00:03:40;;;;;;;14.85;2.85;;;;;;;8.45;100.00;96156.00;5046047;28;20435;-71
2021/12/30 00:06:06;;;;;;;14.93;2.67;;;;;;;8.46;100.00;96157.63;5045980;28;20041;-72
2021/12/30 00:08:32;;;;;;;9.00;2.70;;;;;;;8.43;100.00;96171.44;5044820;28;20029;-72
2021/12/30 00:10:57;;;;;;;14.38;2.88;;;;;;;8.44;100.00;96173.84;5046839;28;20114;-73
2021/12/30 00:13:23;;;;;;;8.82;1.60;;;;;;;8.43;100.00;96179.44;5046975;28;20033;-71
2021/12/30 00:15:49;;;;;;;6.60;2.03;;;;;;;8.40;100.00;96186.03;5046956;28;20115;-72
2021/12/30 00:18:15;;;;;;;15.27;2.30;;;;;;;8.38;100.00;96190.81;5045101;28;20140;-72
2021/12/30 00:20:41;;;;;;;18.98;2.40;;;;;;;8.36;100.00;96183.06;5046173;28;20412;-71
2021/12/30 00:23:08;;;;;;;18.90;2.70;;;;;;;8.36;100.00;96184.91;5045334;28;20049;-71
2021/12/30 00:25:39;;;;;;;16.70;2.78;;;;;;;8.35;100.00;96194.78;5046354;28;20431;-71
2021/12/30 00:28:11;;;;;;;14.55;2.58;;;;;;;8.32;100.00;96194.41;5046109;28;20075;-71
2021/12/30 00:30:41;;;;;;;19.55;2.47;;;;;;;8.31;100.00;96190.94;5045667;28;20590;-72
2021/12/30 00:33:07;;;;;;;11.73;1.90;;;;;;;8.31;100.00;96190.13;5044445;28;20048;-72
2021/12/30 00:35:33;;;;;;;9.57;2.55;;;;;;;8.28;100.00;96194.09;5045704;28;20483;-72
2021/12/30 00:37:59;;;;;;;14.38;2.85;;;;;;;8.28;100.00;96194.09;5045743;28;20091;-72
2021/12/30 00:40:25;;;;;;;16.38;2.85;;;;;;;8.25;100.00;96199.91;5045405;28;20127;-72
2021/12/30 00:42:51;;;;;;;14.40;3.10;;;;;;;8.24;100.00;96178.81;5045628;28;20387;-71
2021/12/30 00:45:17;;;;;;;18.33;2.80;;;;;;;8.27;100.00;96213.00;5043535;28;20044;-71
2021/12/30 00:47:43;;;;;;;19.58;2.53;;;;;;;8.24;100.00;96213.47;5009553;28;20037;-71
2021/12/30 00:50:09;;;;;;;15.18;2.65;;;;;;;8.24;100.00;96210.78;5046090;28;20119;-73
2021/12/30 00:52:34;;;;;;;18.45;2.60;;;;;;;8.23;100.00;96196.66;5044812;28;20044;-71
2021/12/30 00:55:01;;;;;;;19.15;2.58;;;;;;;8.24;100.00;96202.78;5044537;28;20040;-72
2021/12/30 00:57:27;;;;;;;15.27;2.83;;;;;;;8.24;100.00;96203.59;5045257;28;20041;-73
2021/12/30 00:59:52;;;;;;;15.60;3.35;;;;;;;8.25;100.00;96215.06;5043243;28;20029;-71
2021/12/30 01:02:18;;;;;;;14.68;2.90;;;;;;;8.23;100.00;96219.84;5044939;28;20094;-71
2021/12/30 01:04:43;;;;;;;17.27;3.00;;;;;;;8.25;100.00;96221.25;5045594;28;20139;-71
2021/12/30 01:07:09;;;;;;;20.17;3.53;;;;;;;8.24;100.00;96226.78;5044571;28;20406;-72
2021/12/30 01:09:35;;;;;;;11.98;2.55;;;;;;;8.22;100.00;96224.38;5050174;28;20528;-71
2021/12/30 01:12:00;;;;;;;19.83;3.53;;;;;;;8.23;100.00;96231.31;5054260;28;20448;-72
2021/12/30 01:14:29;;;;;;;19.13;2.97;;;;;;;8.21;100.00;96245.94;5044385;28;20029;-71
2021/12/30 01:16:59;;;;;;;14.23;2.50;;;;;;;8.20;100.00;96245.13;5043621;28;20288;-72
2021/12/30 01:19:42;;;;;;;15.65;2.72;;;;;;;8.20;100.00;96244.31;5045123;28;20041;-72
2021/12/30 01:22:24;;;;;;;19.30;3.20;;;;;;;8.16;100.00;96254.63;5043833;28;20388;-73
2021/12/30 01:24:51;;;;;;;16.77;2.58;;;;;;;8.19;100.00;96264.03;5043722;28;20047;-71
2021/12/30 01:27:18;;;;;;;11.20;2.75;;;;;;;8.19;100.00;96274.69;5042922;28;20029;-72
2021/12/30 01:29:44;;;;;;;17.83;3.03;;;;;;;8.16;100.00;96275.94;5044677;28;20033;-72
2021/12/30 01:32:09;;;;;;;19.00;3.05;;;;;;;8.14;100.00;96263.91;5043605;28;20069;-72
2021/12/30 01:34:36;;;;;;;12.27;3.13;;;;;;;8.15;100.00;96269.00;5045012;28;20082;-73
2021/12/30 01:37:04;;;;;;;19.98;3.10;;;;;;;8.15;100.00;96279.66;5043688;28;20033;-71
2021/12/30 01:39:32;;;;;;;18.88;2.53;;;;;;;8.12;100.00;96276.69;5045165;28;20360;-71
2021/12/30 01:41:58;;;;;;;15.57;2.28;;;;;;;8.15;100.00;96287.66;5044727;28;20068;-71
2021/12/30 01:44:24;;;;;;;17.60;2.83;;;;;;;8.16;100.00;96283.94;5044073;28;20110;-71
2021/12/30 01:46:51;;;;;;;15.95;2.85;;;;;;;8.15;100.00;96285.00;5042913;28;20064;-72
2021/12/30 01:49:17;;;;;;;13.20;2.38;;;;;;;8.13;100.00;96292.44;5044767;28;20048;-71
2021/12/30 01:51:43;;;;;;;21.98;3.05;;;;;;;8.12;100.00;96277.50;5044533;28;20314;-71
2021/12/30 01:54:10;;;;;;;18.00;2.63;;;;;;;8.01;100.00;96268.47;5044664;28;20036;-72
2021/12/30 01:56:36;;;;;;;11.55;2.65;;;;;;;7.90;100.00;96271.19;5026031;28;20037;-71
2021/12/30 01:59:03;;;;;;;16.73;3.17;;;;;;;7.76;100.00;96268.78;5044415;28;20072;-71
2021/12/30 02:01:28;;;;;;;17.05;3.47;;;;;;;7.63;100.00;96274.38;5042689;28;20435;-71
2021/12/30 02:03:54;;;;;;;9.60;2.88;;;;;;;7.53;100.00;96290.09;5043625;28;20029;-72
2021/12/30 02:06:20;;;;;;;20.35;2.95;;;;;;;7.45;100.00;96283.28;5042741;28;20033;-71
2021/12/30 02:08:45;;;;;;;20.20;3.05;;;;;;;7.40;100.00;96288.50;5044252;28;20036;-72
2021/12/30 02:11:11;;;;;;;16.67;3.75;;;;;;;7.40;100.00;96279.72;5042964;28;20094;-71
2021/12/30 02:13:36;;;;;;;16.58;2.92;;;;;;;7.40;100.00;96290.38;5043970;28;20044;-71
2021/12/30 02:16:02;;;;;;;18.70;2.65;;;;;;;7.46;100.00;96284.09;5043596;28;20337;-72
2021/12/30 02:18:29;;;;;;;16.55;2.58;;;;;;;7.50;100.00;96279.94;5042746;28;20422;-72
2021/12/30 02:21:00;;;;;;;29.42;2.60;;;;;;;7.59;100.00;96291.84;5043918;28;20051;-72
2021/12/30 02:23:29;;;;;;;16.92;2.95;;;;;;;7.69;100.00;96293.91;5042524;28;20174;-73
2021/12/30 02:26:00;;;;;;;13.02;3.13;;;;;;;7.76;100.00;96291.94;5043042;28;20140;-71
2021/12/30 02:28:29;;;;;;;11.48;2.10;;;;;;;7.83;100.00;96298.75;5043201;28;20041;-73
2021/12/30 02:30:57;;;;;;;12.60;2.33;;;;;;;7.85;100.00;96301.19;5042966;28;20049;-73
2021/12/30 02:33:24;;;;;;;14.00;2.50;;;;;;;7.83;100.00;96312.06;5043410;28;20106;-73
2021/12/30 02:35:51;;;;;;;13.98;2.00;;;;;;;7.81;100.00;96300.03;5043657;28;20039;-73
2021/12/30 02:38:19;;;;;;;14.65;2.38;;;;;;;7.80;100.00;96314.41;5042094;28;20131;-71
2021/12/30 02:40:49;;;;;;;15.27;2.35;;;;;;;7.76;100.00;96306.06;5026362;28;20040;-71
2021/12/30 02:43:18;;;;;;;15.50;1.90;;;;;;;7.83;100.00;96304.09;5043610;28;20090;-71
2021/12/30 02:45:45;;;;;;;9.32;2.70;;;;;;;7.92;100.00;96301.06;5043703;28;20432;-71
2021/12/30 02:48:17;;;;;;;11.27;2.40;;;;;;;7.96;100.00;96291.56;5042411;28;20033;-71
2021/12/30 02:50:44;;;;;;;24.67;2.72;;;;;;;8.00;100.00;96306.81;5043468;28;20067;-72
2021/12/30 02:53:11;;;;;;;14.75;2.42;;;;;;;8.05;100.00;96312.28;5042035;28;20059;-71
2021/12/30 02:55:36;;;;;;;12.63;1.98;;;;;;;8.08;100.00;96300.31;5042847;28;20113;-71
2021/12/30 02:58:02;;;;;;;11.57;1.90;;;;;;;8.07;100.00;96307.50;5043185;28;20128;-73
2021/12/30 03:00:28;;;;;;;16.23;2.90;;;;;;;8.08;100.00;96303.78;5043458;28;20106;-71
2021/12/30 03:02:54;;;;;;;10.32;1.80;;;;;;;8.08;100.00;96305.66;5043969;28;20039;-71
2021/12/30 03:05:20;;;;;;;7.30;1.88;;;;;;;8.08;100.00;96306.44;5043912;28;20037;-71
2021/12/30 03:07:46;;;;;;;14.43;2.35;;;;;;;8.09;100.00;96304.59;5045144;28;20278;-71
2021/12/30 03:10:18;;;;;;;8.32;1.98;;;;;;;8.09;100.00;96305.44;5039052;28;20810;-71
2021/12/30 03:12:44;;;;;;;;;;;;;;;8.09;100.00;96312.59;5045175;28;20044;-71
2021/12/30 03:15:14;;;;;;;14.38;3.28;;;;;;;8.12;100.00;96309.47;5043991;28;19943;-71
2021/12/30 03:17:40;;;;;;;10.48;2.28;;;;;;;8.12;100.00;96311.34;5047415;28;20116;-71
2021/12/30 03:20:09;;;;;;;11.45;2.25;;;;;;;8.07;100.00;96315.50;5046724;28;20037;-71
2021/12/30 03:22:39;;;;;;;13.25;2.15;;;;;;;8.07;100.00;96331.50;5045919;28;20068;-70
2021/12/30 03:25:07;;;;;;;10.82;1.90;;;;;;;8.06;100.00;96331.72;5045668;28;20044;-71
2021/12/30 03:27:32;;;;;;;15.75;2.25;;;;;;;8.04;100.00;96337.31;5046481;28;20029;-71
2021/12/30 03:29:58;;;;;;;13.82;2.20;;;;;;;8.04;100.00;96344.50;5046924;28;20035;-70
2021/12/30 03:32:23;;;;;;;9.57;1.80;;;;;;;8.00;100.00;96330.81;5046554;28;20055;-72
2021/12/30 03:34:49;;;;;;;14.73;2.50;;;;;;;7.98;100.00;96326.75;5046772;28;20124;-73
2021/12/30 03:37:14;;;;;;;14.00;2.22;;;;;;;7.93;100.00;96335.44;5029058;28;20033;-71
2021/12/30 03:39:40;;;;;;;9.52;1.83;;;;;;;7.79;100.00;96328.78;5046254;28;20083;-71
2021/12/30 03:42:07;;;;;;;11.07;2.55;;;;;;;7.78;100.00;96333.31;5046157;28;20041;-71
2021/12/30 03:44:32;;;;;;;9.93;1.80;;;;;;;7.65;100.00;96335.38;5047327;28;20076;-71
2021/12/30 03:46:58;;;;;;;12.88;1.88;;;;;;;7.56;100.00;96340.25;5043703;28;20566;-71
2021/12/30 03:49:24;;;;;;;14.10;1.80;;;;;;;7.45;100.00;96349.03;5046818;28;20099;-71
2021/12/30 03:51:51;;;;;;;17.00;2.42;;;;;;;7.44;100.00;96348.22;5045702;28;20123;-71
2021/12/30 03:54:19;;;;;;;15.55;1.75;;;;;;;7.42;100.00;96349.50;5045313;28;20073;-71
2021/12/30 03:56:45;;;;;;;10.32;2.05;;;;;;;7.38;100.00;96348.34;5055385;28;20047;-72
2021/12/30 03:59:10;;;;;;;12.88;2.03;;;;;;;7.45;100.00;96357.84;5062565;28;20612;-72
2021/12/30 04:01:36;;;;;;;9.95;2.20;;;;;;;7.49;100.00;96360.88;5057224;28;20117;-72
2021/12/30 04:04:03;;;;;;;11.57;2.10;;;;;;;7.49;100.00;96351.03;5059925;28;20131;-73
2021/12/30 04:06:29;;;;;;;14.32;2.30;;;;;;;7.46;100.00;96367.44;5054730;28;20198;-72
2021/12/30 04:08:56;;;;;;;16.98;2.83;;;;;;;7.45;100.00;96365.00;5048551;28;20145;-72
2021/12/30 04:11:26;;;;;;;14.00;2.40;;;;;;;7.47;100.00;96369.09;5048276;28;20149;-71
2021/12/30 04:13:52;;;;;;;15.05;2.05;;;;;;;7.49;100.00;96369.66;5048287;28;20044;-72
2021/12/30 04:16:19;;;;;;;11.18;2.20;;;;;;;7.47;100.00;96368.25;5048547;28;20091;-71
2021/12/30 04:18:48;;;;;;;16.17;2.05;;;;;;;7.50;100.00;96371.28;5046919;28;20097;-72
2021/12/30 04:21:16;;;;;;;8.63;2.75;;;;;;;7.54;100.00;96374.28;5027219;28;20148;-71
2021/12/30 04:23:41;;;;;;;15.85;2.58;;;;;;;7.46;100.00;96377.28;5047294;28;20029;-73
2021/12/30 04:26:07;;;;;;;6.15;2.03;;;;;;;7.43;100.00;96367.09;5046625;28;20102;-71
2021/12/30 04:28:32;;;;;;;7.97;1.58;;;;;;;7.44;100.00;96366.06;5039663;28;20044;-72
2021/12/30 04:30:58;;;;;;;6.30;1.58;;;;;;;7.46;100.00;96370.09;5051841;28;20065;-71
2021/12/30 04:33:23;;;;;;;7.88;1.60;;;;;;;7.53;100.00;96368.13;5049140;28;20033;-72
2021/12/30 04:35:50;;;;;;;8.68;1.40;;;;;;;7.57;100.00;96368.50;5048070;28;20037;-71
2021/12/30 04:38:15;;;;;;;8.90;1.80;;;;;;;7.57;100.00;96367.69;5046757;28;20051;-71
2021/12/30 04:40:41;;;;;;;7.85;1.58;;;;;;;7.56;100.00;96368.75;5046220;28;20876;-71
2021/12/30 04:43:06;;;;;;;6.93;1.45;;;;;;;7.62;100.00;96365.13;5047844;28;20033;-71
2021/12/30 04:45:32;;;;;;;4.47;1.33;;;;;;;7.60;100.00;96365.38;5046047;28;20033;-71
2021/12/30 04:47:57;;;;;;;3.67;1.10;;;;;;;7.66;100.00;96374.28;5029769;28;20045;-71
2021/12/30 04:50:23;;;;;;;4.45;1.20;;;;;;;7.70;100.00;96372.78;5047747;28;20507;-73
2021/12/30 04:52:49;;;;;;;4.20;1.05;;;;;;;7.77;100.00;96374.28;5045513;28;20063;-72
2021/12/30 04:55:14;;;;;;;4.28;1.50;;;;;;;7.80;100.00;96363.16;5046746;28;20040;-71
2021/12/30 04:57:40;;;;;;;4.50;1.00;;;;;;;7.83;100.00;96373.34;5045877;28;20041;-71
2021/12/30 05:00:09;;;;;;;3.08;0.80;;;;;;;7.80;100.00;96365.84;5045451;28;20033;-71
2021/12/30 05:02:57;;;;;;;3.65;0.80;;;;;;;7.82;100.00;96362.94;5045429;28;20498;-72
2021/12/30 05:05:21;;;;;;;1.73;0.65;;;;;;;7.86;100.00;96366.75;5045362;28;20112;-71
2021/12/30 05:07:46;;;;;;;3.00;0.80;;;;;;;7.87;100.00;96367.56;5045848;28;20108;-71
2021/12/30 05:10:11;;;;;;;3.50;0.40;;;;;;;7.88;100.00;96363.84;5045619;28;20053;-72
2021/12/30 05:12:39;;;;;;;1.38;0.50;;;;;;;7.91;100.00;96368.72;5046611;28;20079;-71
2021/12/30 05:15:05;;;;;;;1.25;0.50;;;;;;;7.92;100.00;96365.81;5046194;28;20067;-71
2021/12/30 05:17:31;;;;;;;1.02;0.43;;;;;;;7.96;100.00;96374.97;5046024;28;20401;-71
2021/12/30 05:19:56;;;;;;;1.15;0.50;;;;;;;8.00;100.00;96375.31;5046852;28;20546;-72
2021/12/30 05:22:22;;;;;;;0.57;0.30;;;;;;;8.02;100.00;96371.38;5045491;28;20025;-71
2021/12/30 05:24:47;;;;;;;0.47;0.30;;;;;;;8.04;100.00;96374.59;5045431;28;20098;-71
2021/12/30 05:27:13;;;;;;;0.40;0.20;;;;;;;8.09;100.00;96371.22;5044994;28;20150;-71
2021/12/30 05:29:38;;;;;;;1.65;0.20;;;;;;;8.12;100.00;96369.97;5045974;28;20044;-71
2021/12/30 05:32:04;;;;;;;0.70;0.20;;;;;;;8.17;100.00;96370.06;5044220;28;20037;-71
2021/12/30 05:34:30;;;;;;;12.23;0.50;;;;;;;8.22;100.00;96373.63;5045506;28;20069;-72
2021/12/30 05:36:55;;;;;;;0.88;0.40;;;;;;;8.26;100.00;96379.34;5045029;28;20033;-72
2021/12/30 05:39:21;;;;;;;0.30;0.20;;;;;;;8.30;100.00;96373.28;5043009;28;20216;-70
2021/12/30 05:41:46;;;;;;;0.70;0.30;;;;;;;8.32;100.00;96378.38;5044764;28;20446;-71
2021/12/30 05:44:12;;;;;;;0.43;0.20;;;;;;;8.33;100.00;96383.47;5044042;28;20053;-71
2021/12/30 05:46:37;;;;;;;0.60;0.32;;;;;;;8.35;100.00;96381.41;5044707;28;20021;-71
2021/12/30 05:49:03;;;;;;;1.30;0.30;;;;;;;8.41;100.00;96381.53;5045595;28;20326;-71
2021/12/30 05:51:29;;;;;;;2.83;0.50;;;;;;;8.42;100.00;96370.63;5044806;28;20463;-70
2021/12/30 05:53:54;;;;;;;1.10;0.43;;;;;;;8.46;100.00;96385.09;5043627;28;20041;-71
2021/12/30 05:56:20;;;;;;;1.40;0.40;;;;;;;8.52;100.00;96386.81;5045027;28;20036;-71
2021/12/30 05:58:45;;;;;;;1.08;0.50;;;;;;;8.59;100.00;96392.81;5045199;28;20511;-70
2021/12/30 06:01:11;;;;;;;1.60;0.70;;;;;;;8.62;100.00;96386.19;5046108;28;20061;-71
2021/12/30 06:03:36;;;;;;;2.22;0.90;;;;;;;8.65;100.00;96399.88;5043024;28;20040;-71
2021/12/30 06:06:02;;;;;;;2.20;0.90;;;;;;;8.73;100.00;96397.88;5043861;28;20031;-72
2021/12/30 06:08:27;;;;;;;1.98;0.70;;;;;;;8.77;100.00;96404.34;5041363;28;20482;-71
2021/12/30 06:10:53;;;;;;;4.65;0.90;;;;;;;8.80;100.00;96417.22;5044630;28;20476;-73
2021/12/30 06:13:19;;;;;;;2.38;0.88;;;;;;;8.86;100.00;96413.59;5045382;28;20059;-72
2021/12/30 06:15:44;;;;;;;4.95;1.20;;;;;;;8.89;100.00;96407.78;5045408;28;20439;-71
2021/12/30 06:18:10;;;;;;;2.50;1.17;;;;;;;8.95;100.00;96417.53;5043903;28;20110;-71
2021/12/30 06:20:37;;;;;;;2.70;1.10;;;;;;;9.01;100.00;96411.22;5045086;28;20075;-71
2021/12/30 06:23:03;;;;;;;5.40;1.30;;;;;;;9.04;100.00;96405.41;5043204;28;20069;-71
2021/12/30 06:25:29;;;;;;;3.90;1.40;;;;;;;9.05;100.00;96415.03;5043316;28;20029;-72
2021/12/30 06:27:55;;;;;;;3.63;1.20;;;;;;;9.04;100.00;96410.75;5044996;28;20473;-71
2021/12/30 06:30:20;;;;;;;2.90;1.35;;;;;;;9.07;100.00;96418.25;5043868;28;20033;-71
2021/12/30 06:32:46;;;;;;;3.42;1.60;;;;;;;9.07;100.00;96409.44;5044782;28;20078;-70
2021/12/30 06:35:11;;;;;;;3.90;1.23;;;;;;;9.10;100.00;96425.78;5043609;28;20456;-71
2021/12/30 06:37:38;;;;;;;3.53;1.17;;;;;;;9.15;100.00;96425.06;5043396;28;20048;-71
2021/12/30 06:40:06;;;;;;;2.28;0.90;;;;;;;9.19;100.00;96426.22;5041781;28;20507;-70
2021/12/30 06:42:32;;;;;;;2.83;1.00;;;;;;;9.19;100.00;96419.03;5044588;28;20053;-73
2021/12/30 06:44:57;;;;;;;3.72;1.50;;;;;;;9.21;100.00;96424.94;5043392;28;20512;-71
2021/12/30 06:47:24;;;;;;;2.33;1.08;;;;;;;9.18;100.00;96421.91;5042563;28;20033;-70
2021/12/30 06:49:50;;;;;;;5.18;1.50;;;;;;;9.19;100.00;96431.56;5043931;28;20105;-71
2021/12/30 06:52:16;;;;;;;6.15;1.73;;;;;;;9.22;100.00;96433.75;5042444;28;20040;-71
2021/12/30 06:54:42;;;;;;;6.53;1.45;;;;;;;9.17;100.00;96430.97;5043529;28;20456;-70
2021/12/30 06:57:12;;;;;;;2.90;1.33;;;;;;;9.21;100.00;96442.81;5042579;28;20056;-71
2021/12/30 06:59:37;;;;;;;2.80;1.20;;;;;;;9.23;100.00;96450.56;5043602;28;20072;-71
2021/12/30 07:02:06;;;;;;;2.60;1.17;;;;;;;9.28;100.00;96448.00;5042574;28;20129;-71
2021/12/30 07:04:32;;;;;;;2.35;1.10;;;;;;;9.30;100.00;96446.69;5043245;28;20384;-70
2021/12/30 07:06:58;;;;;;;2.90;1.10;;;;;;;9.32;100.00;96459.81;5042799;28;20087;-71
2021/12/30 07:09:24;;;;;;;2.20;1.05;;;;;;;9.34;100.00;96463.03;5042771;28;20724;-71
2021/12/30 07:11:51;;;;;;;2.85;1.10;;;;;;;9.33;100.00;96464.91;5043531;28;20044;-70
2021/12/30 07:14:21;;;;;;;3.97;1.33;;;;;;;9.37;100.00;96467.91;5045004;28;20512;-70
2021/12/30 07:16:47;;;;;;;2.40;1.17;;;;;;;9.37;100.00;96457.25;5043197;28;20069;-71
2021/12/30 07:19:13;;;;;;;3.22;1.55;;;;;;;9.38;100.00;96470.34;5042143;28;20123;-70
2021/12/30 07:21:39;;;;;;;2.95;1.30;;;;;;;9.38;100.00;96470.34;5043919;28;20059;-70
2021/12/30 07:24:05;;;;;;;4.00;1.27;;;;;;;9.42;100.00;96466.16;5042833;28;20045;-70
2021/12/30 07:26:31;;;;;;;3.95;1.33;;;;;;;9.40;100.00;96470.09;5043440;28;20064;-73
2021/12/30 07:28:57;;;;;;;2.97;1.00;;;;;;;9.42;100.00;96484.03;5042916;28;20408;-71
2021/12/30 07:31:22;;;;;;;1.95;0.90;;;;;;;9.41;100.00;96474.38;5041895;28;20052;-71
2021/12/30 07:33:48;;;;;;;3.33;1.10;;;;;;;9.43;100.00;96488.34;5043786;28;20345;-72
2021/12/30 07:36:13;;;;;;;2.72;1.25;;;;;;;9.44;100.00;96481.94;5041244;28;20329;-70
2021/12/30 07:38:40;;;;;;;4.35;1.95;;;;;;;9.46;100.00;96485.97;5040837;28;20036;-70
2021/12/30 07:41:05;;;;;;;4.25;1.30;;;;;;;9.48;100.00;96486.53;5024599;28;20122;-71
2021/12/30 07:43:32;;;;;;;3.15;1.15;;;;;;;9.48;100.00;96488.41;5041754;28;20476;-71
2021/12/30 07:45:59;;;;;;;5.80;1.30;;;;;;;9.46;100.00;96498.53;5042491;28;20071;-71
2021/12/30 07:48:25;;;;;;;3.05;1.02;;;;;;;9.42;100.00;96481.38;5042952;28;20045;-70
2021/12/30 07:50:51;;;;;;;1.33;0.55;;;;;;;9.41;100.00;96490.41;5043873;28;20486;-71
2021/12/30 07:53:16;;;;;;;2.97;1.10;;;;;;;9.46;100.00;96485.97;5042126;28;20087;-70
2021/12/30 07:55:42;;;;;;;2.58;0.70;;;;;;;9.52;100.00;96486.88;5042533;28;20036;-70
2021/12/30 07:58:07;;;;;;;2.10;0.80;;;;;;;9.56;100.00;96492.53;5040719;28;20122;-70
2021/12/30 08:00:33;;;;;;;1.08;0.60;;;;;;;9.60;100.00;96493.69;5042852;28;20415;-70
2021/12/30 08:02:58;;;;;;;2.28;0.77;;;;;;;9.64;100.00;96487.63;5047773;28;20056;-70
2021/12/30 08:05:24;;;;;;;1.77;0.70;;;;;;;9.67;100.00;96489.00;5046567;28;20037;-71
2021/12/30 08:07:49;;;;;;;1.58;0.75;;;;;;;9.71;100.00;96492.81;5047354;28;20079;-70
2021/12/30 08:10:18;;;;;;;2.97;0.80;;;;;;;9.74;100.00;96489.66;5046105;28;20072;-71
2021/12/30 08:12:45;;;;;;;1.45;0.63;;;;;;;9.78;100.00;96493.47;5047452;28;20041;-70
2021/12/30 08:15:12;;;;;;;1.33;0.50;;;;;;;9.81;100.00;96494.84;5046309;28;20067;-71
2021/12/30 08:17:39;;;;;;;1.88;0.55;;;;;;;9.83;100.00;96490.06;5047849;28;20484;-70
2021/12/30 08:20:06;;;;;;;4.10;0.70;;;;;;;9.85;100.00;96496.78;5046748;28;20059;-72
2021/12/30 08:22:32;;;;;;;1.33;0.50;;;;;;;9.86;100.00;96500.25;5048072;28;20033;-70
2021/12/30 08:24:58;;;;;;;1.45;0.60;;;;;;;9.92;100.00;96516.16;5046430;28;20040;-70
2021/12/30 08:27:24;;;;;;;2.78;0.45;;;;;;;9.94;100.00;96515.91;5046932;28;20049;-71
2021/12/30 08:29:50;;;;;;;2.40;0.80;;;;;;;9.96;100.00;96519.97;5047263;28;20045;-71
2021/12/30 08:32:16;;;;;;;1.02;0.45;;;;;;;9.98;100.00;96527.75;5046154;28;20056;-70
2021/12/30 08:34:43;;;;;;;3.03;0.80;;;;;;;10.00;100.00;96539.81;5046479;28;20053;-70
2021/12/30 08:37:09;;;;;;;1.80;0.55;;;;;;;10.02;100.00;96534.22;5045225;28;20044;-72
2021/12/30 08:39:36;;;;;;;2.95;1.10;;;;;;;10.05;100.00;96537.22;5046615;28;20045;-71
2021/12/30 08:42:04;;;;;;;1.08;0.60;;;;;;;10.06;100.00;96556.75;5045370;28;20104;-71
2021/12/30 08:44:30;;;;;;;4.15;0.70;;;;;;;10.06;100.00;96543.38;5047691;28;20044;-70
2021/12/30 08:46:55;;;;;;;2.28;0.70;;;;;;;10.07;100.00;96539.66;5045444;28;20033;-72
2021/12/30 08:49:22;;;;;;;3.50;0.68;;;;;;;10.11;100.00;96554.13;5045854;28;20037;-71
2021/12/30 08:51:48;;;;;;;1.63;0.63;;;;;;;10.12;100.00;96549.63;5045650;28;20049;-70
2021/12/30 08:54:13;;;;;;;1.88;0.70;;;;;;;10.14;100.00;96555.53;5045338;28;20032;-70
2021/12/30 08:56:41;;;;;;;2.45;0.75;;;;;;;10.16;100.00;96564.94;5045462;28;20139;-72
2021/12/30 08:59:07;;;;;;;2.20;0.70;;;;;;;10.16;100.00;96572.13;5046837;28;20041;-71
2021/12/30 09:01:32;;;;;;;2.08;0.80;;;;;;;10.16;100.00;96575.63;5046138;28;20048;-71
2021/12/30 09:03:58;;;;;;;1.27;0.55;;;;;;;10.16;100.00;96574.81;5046744;28;20464;-70
2021/12/30 09:06:24;;;;;;;2.17;0.93;;;;;;;10.14;100.00;96577.72;5045684;28;20075;-72
2021/12/30 09:08:50;;;;;;;1.40;0.60;;;;;;;10.10;100.00;96579.25;5045296;28;20037;-70
2021/12/30 09:11:15;;;;;;;2.05;0.60;;;;;;;10.11;100.00;96585.41;5045454;28;20033;-71
2021/12/30 09:13:41;;;;;;;1.65;0.73;;;;;;;10.12;100.00;96581.72;5045356;28;20033;-70
2021/12/30 09:16:07;;;;;;;2.63;0.73;;;;;;;10.12;100.00;96587.06;5045392;28;20033;-71
2021/12/30 09:18:33;;;;;;;2.72;0.70;;;;;;;10.15;100.00;96584.69;5027332;28;20124;-70
2021/12/30 09:20:59;;;;;;;2.35;0.70;;;;;;;10.21;100.00;96594.44;5046470;28;20047;-70
2021/12/30 09:23:24;;;;;;;1.55;0.60;;;;;;;10.29;100.00;96591.38;5044579;28;20099;-71
2021/12/30 09:25:50;;;;;;;1.70;0.60;;;;;;;10.38;100.00;96596.31;5045974;28;20933;-70
2021/12/30 09:28:15;;;;;;;2.17;0.70;;;;;;;10.42;100.00;96608.16;5044426;28;20098;-70
2021/12/30 09:30:43;;;;;;;2.33;0.80;;;;;;;10.44;100.00;96606.06;5046071;28;20092;-70
2021/12/30 09:33:09;;;;;;;1.63;0.68;;;;;;;10.47;100.00;96613.59;5044445;28;20052;-70
2021/12/30 09:35:35;;;;;;;1.52;0.65;;;;;;;10.44;100.00;96606.06;5045494;28;20032;-71
2021/12/30 09:38:00;;;;;;;1.60;0.75;;;;;;;10.48;100.00;96618.69;5044645;28;20064;-71
2021/12/30 09:40:27;;;;;;;1.55;0.70;;;;;;;10.43;100.00;96615.94;5043999;28;20029;-70
2021/12/30 09:43:01;;;;;;;1.40;0.60;;;;;;;10.42;100.00;96616.16;5044897;28;20033;-71
2021/12/30 09:45:28;;;;;;;1.40;0.70;;;;;;;10.38;100.00;96609.69;5044461;28;20206;-71
2021/12/30 09:47:56;;;;;;;2.28;0.77;;;;;;;10.38;100.00;96610.50;5046545;28;20491;-70
2021/12/30 09:50:25;;;;;;;2.90;0.90;;;;;;;10.44;100.00;96622.91;5045239;28;20693;-70
2021/12/30 09:52:51;;;;;;;3.05;1.15;;;;;;;10.41;100.00;96623.38;5042702;28;20037;-72
2021/12/30 09:55:17;;;;;;;3.60;0.90;;;;;;;10.39;100.00;96622.03;5043957;28;20360;-71
2021/12/30 09:57:43;;;;;;;1.33;0.63;;;;;;;10.38;100.00;96628.44;5043429;28;20715;-71
2021/12/30 10:00:12;;;;;;;1.13;0.60;;;;;;;10.36;100.00;96626.00;5039255;28;20503;-72
2021/12/30 10:02:41;;;;;;;4.30;0.70;;;;;;;10.38;100.00;96629.25;5041230;28;20037;-70
2021/12/30 10:05:10;;;;;;;1.75;0.75;;;;;;;10.37;100.00;96632.16;5042191;28;20091;-70
2021/12/30 10:07:39;;;;;;;1.80;0.60;;;;;;;10.37;100.00;96634.84;5042432;28;20064;-72
2021/12/30 10:10:31;;;;;;;2.30;0.60;;;;;;;10.37;100.00;96634.84;5043552;28;20025;-71
2021/12/30 10:12:58;;;;;;;2.40;0.50;;;;;;;10.40;100.00;96634.34;5042697;28;20037;-72
2021/12/30 10:15:26;;;;;;;1.40;0.60;;;;;;;10.44;100.00;96616.75;5043871;28;20029;-70
2021/12/30 10:17:56;;;;;;;1.73;0.70;;;;;;;10.55;100.00;96618.53;5044206;28;20059;-71
2021/12/30 10:20:27;;;;;;;1.70;0.57;;;;;;;10.70;100.00;96617.94;5040976;28;20140;-72
2021/12/30 10:22:54;;;;;;;2.30;0.80;;;;;;;10.77;100.00;96627.44;5041845;28;20032;-70
2021/12/30 10:25:38;;;;;;;1.75;0.60;;;;;;;10.88;100.00;96623.03;5044060;28;20499;-70
2021/12/30 10:28:19;;;;;;;1.45;0.63;;;;;;;10.93;100.00;96616.94;5042352;28;20043;-71
2021/12/30 10:30:46;;;;;;;3.70;1.98;;;;;;;11.13;100.00;96623.41;5042216;28;20433;-70
2021/12/30 10:33:16;;;;;;;3.25;1.00;;;;;;;11.11;100.00;96633.53;5042351;28;20107;-72
2021/12/30 10:35:41;;;;;;;1.92;0.82;;;;;;;11.19;100.00;96623.44;5042851;28;20368;-71
2021/12/30 10:38:11;;;;;;;3.30;1.60;;;;;;;11.20;100.00;96623.19;5043255;28;20052;-70
2021/12/30 10:40:45;;;;;;;3.17;0.90;;;;;;;11.08;100.00;96622.50;5043674;28;20032;-70
2021/12/30 10:43:37;;;;;;;1.50;0.70;;;;;;;11.10;100.00;96631.09;5043821;28;20132;-70
2021/12/30 10:46:06;;;;;;;1.42;0.68;;;;;;;11.19;100.00;96631.47;5043983;28;20136;-70
2021/12/30 10:48:33;;;;;;;3.25;1.83;;;;;;;11.24;100.00;96632.38;5043834;28;20047;-71
2021/12/30 10:51:33;;;;;;;2.15;0.88;;;;;;;11.25;100.00;96628.63;5043993;28;20236;-70
2021/12/30 10:54:09;;;;;;;1.55;0.63;;;;;;;11.22;100.00;96639.84;5031800;28;20393;-70
2021/12/30 10:56:40;;;;;;;1.92;0.90;;;;;;;11.16;100.00;96630.94;5043920;28;20226;-71
2021/12/30 10:59:09;;;;;;;2.15;1.02;;;;;;;11.14;100.00;96633.06;5045908;28;20048;-71
2021/12/30 11:01:44;;;;;;;4.55;1.98;;;;;;;11.15;100.00;96639.22;5043061;28;20045;-71
2021/12/30 11:04:11;;;;;;;3.38;1.10;;;;;;;11.16;100.00;96646.19;5043823;28;20029;-70
2021/12/30 11:06:37;;;;;;;2.05;0.95;;;;;;;11.16;100.00;96625.56;5043121;28;20483;-70
2021/12/30 11:09:20;;;;;;;2.60;1.10;;;;;;;11.12;100.00;96624.44;5043960;28;20397;-71
2021/12/30 11:11:52;;;;;;;0.93;0.47;;;;;;;11.14;100.00;96637.59;5043898;28;20036;-71
2021/12/30 11:14:26;;;;;;;3.80;0.93;;;;;;;11.17;100.00;96631.75;5042889;28;20063;-70
2021/12/30 11:17:00;;;;;;;3.85;1.20;;;;;;;11.18;100.00;96633.34;5044139;28;20033;-70
2021/12/30 11:19:28;;;;;;;2.38;0.95;;;;;;;11.18;100.00;96628.00;5044874;28;20120;-70
2021/12/30 11:21:57;;;;;;;3.28;0.90;;;;;;;11.23;100.00;96632.63;5045293;28;20029;-72
2021/12/30 11:24:23;;;;;;;3.00;1.02;;;;;;;11.28;100.00;96619.28;5044403;28;20045;-70
2021/12/30 11:26:50;;;;;;;2.40;0.70;;;;;;;11.22;100.00;96626.47;5042980;28;20078;-70
2021/12/30 11:29:16;;;;;;;2.15;0.80;;;;;;;11.22;100.00;96621.09;5039005;28;20116;-70